IPVLM LIPY-LIMC
Flight info
| Callsign | IPVLM |
|---|---|
| Flight time | N/A |
| Altitude | 18000 |
| Route | BIDMA M730 ASDOR/N0272F260 DCT SUKOM DCT VABOK DCT ADOSA/N0272F270 DCT IDREK DCT ELTAR DCT NOBMI DCT NEVNI DCT OSKOR DCT LEGLO DCT PEXUG |
| Aircraft | PC12/L-SDFGRWY/S |
Departure
| Time | 2026-05-04 21:07 |
|---|---|
| Airport | Marche Airport (LIPY) |
Arrival
| Time | N/A |
|---|---|
| Airport | Milan Malpensa International Airport (LIMC) |
| Time | Latitude | Longitude | Altitude | Speed | Heading |
|---|---|---|---|---|---|
| 2026-05-04 20:48 | 43.60822 | 13.35558 | 28 ft | 0 kts | 136° |
| 2026-05-04 20:59 | 43.60820 | 13.35565 | 55 ft | 6 kts | 103° |
| 2026-05-04 21:00 | 43.60842 | 13.35576 | 52 ft | 7 kts | 338° |
| 2026-05-04 21:00 | 43.60867 | 13.35555 | 56 ft | 3 kts | 342° |
| 2026-05-04 21:00 | 43.60918 | 13.35551 | 57 ft | 11 kts | 7° |
| 2026-05-04 21:00 | 43.60998 | 13.35558 | 55 ft | 8 kts | 358° |
| 2026-05-04 21:01 | 43.61087 | 13.35533 | 51 ft | 14 kts | 302° |
| 2026-05-04 21:01 | 43.61063 | 13.35448 | 51 ft | 12 kts | 230° |
| 2026-05-04 21:01 | 43.60992 | 13.35335 | 53 ft | 20 kts | 217° |
| 2026-05-04 21:01 | 43.60867 | 13.35190 | 53 ft | 26 kts | 226° |
| 2026-05-04 21:02 | 43.60860 | 13.35128 | 52 ft | 14 kts | 49° |
| 2026-05-04 21:02 | 43.60933 | 13.35272 | 52 ft | 24 kts | 49° |
| 2026-05-04 21:02 | 43.61074 | 13.35467 | 53 ft | 34 kts | 43° |
| 2026-05-04 21:02 | 43.61262 | 13.35724 | 47 ft | 41 kts | 43° |
| 2026-05-04 21:03 | 43.61475 | 13.36022 | 43 ft | 46 kts | 45° |
| 2026-05-04 21:03 | 43.61709 | 13.36335 | 46 ft | 47 kts | 46° |
| 2026-05-04 21:03 | 43.61917 | 13.36623 | 41 ft | 44 kts | 44° |
| 2026-05-04 21:03 | 43.62136 | 13.36935 | 38 ft | 47 kts | 45° |
| 2026-05-04 21:04 | 43.62359 | 13.37243 | 38 ft | 27 kts | 48° |
| 2026-05-04 21:04 | 43.62388 | 13.37260 | 37 ft | 0 kts | 220° |
| 2026-05-04 21:04 | 43.62384 | 13.37256 | 37 ft | 2 kts | 220° |
| 2026-05-04 21:04 | 43.62380 | 13.37251 | 38 ft | 0 kts | 217° |
| 2026-05-04 21:06 | 43.62377 | 13.37248 | 38 ft | 3 kts | 218° |
| 2026-05-04 21:06 | 43.62308 | 13.37159 | 40 ft | 38 kts | 220° |
| 2026-05-04 21:06 | 43.61987 | 13.36709 | 38 ft | 91 kts | 225° |
| 2026-05-04 21:07 | 43.61495 | 13.36034 | 265 ft | 105 kts | 224° |
| 2026-05-04 21:07 | 43.60948 | 13.35250 | 631 ft | 125 kts | 226° |
| 2026-05-04 21:07 | 43.60358 | 13.34303 | 1217 ft | 135 kts | 233° |
| 2026-05-04 21:07 | 43.59777 | 13.33040 | 1267 ft | 181 kts | 245° |
| 2026-05-04 21:08 | 43.59289 | 13.31452 | 1768 ft | 189 kts | 247° |
| 2026-05-04 21:08 | 43.58755 | 13.29782 | 2333 ft | 192 kts | 246° |
| 2026-05-04 21:08 | 43.58215 | 13.28052 | 2741 ft | 205 kts | 246° |
| 2026-05-04 21:08 | 43.57644 | 13.26223 | 3272 ft | 205 kts | 245° |
| 2026-05-04 21:09 | 43.57057 | 13.24412 | 3753 ft | 208 kts | 244° |
| 2026-05-04 21:09 | 43.56461 | 13.22605 | 4343 ft | 206 kts | 243° |
| 2026-05-04 21:09 | 43.55901 | 13.20766 | 4868 ft | 211 kts | 246° |
| 2026-05-04 21:09 | 43.55484 | 13.18785 | 5297 ft | 218 kts | 253° |
| 2026-05-04 21:10 | 43.55060 | 13.16711 | 5543 ft | 231 kts | 250° |
| 2026-05-04 21:10 | 43.54552 | 13.14584 | 5844 ft | 237 kts | 248° |
| 2026-05-04 21:10 | 43.53963 | 13.12441 | 6163 ft | 239 kts | 245° |
| 2026-05-04 21:10 | 43.53315 | 13.10350 | 6634 ft | 235 kts | 243° |
| 2026-05-04 21:11 | 43.52614 | 13.08339 | 7062 ft | 232 kts | 240° |
| 2026-05-04 21:11 | 43.51887 | 13.06367 | 7375 ft | 234 kts | 240° |
| 2026-05-04 21:11 | 43.51171 | 13.04347 | 7697 ft | 236 kts | 241° |
| 2026-05-04 21:11 | 43.50441 | 13.02324 | 8064 ft | 235 kts | 240° |
| 2026-05-04 21:12 | 43.49656 | 13.00364 | 8448 ft | 233 kts | 237° |
| 2026-05-04 21:12 | 43.48789 | 12.98470 | 8799 ft | 233 kts | 233° |
| 2026-05-04 21:12 | 43.47822 | 12.96667 | 9133 ft | 234 kts | 229° |
| 2026-05-04 21:12 | 43.46760 | 12.94996 | 9476 ft | 232 kts | 224° |
| 2026-05-04 21:13 | 43.45588 | 12.93458 | 9802 ft | 233 kts | 220° |
| 2026-05-04 21:13 | 43.44330 | 12.92023 | 10096 ft | 234 kts | 217° |
| 2026-05-04 21:13 | 43.43006 | 12.90711 | 10394 ft | 235 kts | 213° |
| 2026-05-04 21:13 | 43.41608 | 12.89535 | 10672 ft | 237 kts | 210° |
| 2026-05-04 21:14 | 43.40126 | 12.88462 | 10884 ft | 241 kts | 207° |
| 2026-05-04 21:14 | 43.38599 | 12.87490 | 11159 ft | 243 kts | 205° |
| 2026-05-04 21:14 | 43.37066 | 12.86585 | 11488 ft | 240 kts | 206° |
| 2026-05-04 21:14 | 43.35745 | 12.85182 | 11792 ft | 239 kts | 231° |
| 2026-05-04 21:15 | 43.35024 | 12.83169 | 12120 ft | 240 kts | 255° |
| 2026-05-04 21:15 | 43.34998 | 12.80888 | 12430 ft | 244 kts | 279° |
| 2026-05-04 21:15 | 43.35683 | 12.78749 | 12710 ft | 250 kts | 302° |
| 2026-05-04 21:15 | 43.36983 | 12.77129 | 12989 ft | 257 kts | 326° |
| 2026-05-04 21:16 | 43.38675 | 12.76249 | 13280 ft | 260 kts | 341° |
| 2026-05-04 21:16 | 43.40411 | 12.75548 | 13571 ft | 260 kts | 338° |
| 2026-05-04 21:16 | 43.42047 | 12.74538 | 13856 ft | 258 kts | 327° |
| 2026-05-04 21:16 | 43.43510 | 12.73151 | 14115 ft | 253 kts | 319° |
| 2026-05-04 21:17 | 43.44906 | 12.71706 | 14368 ft | 250 kts | 321° |
| 2026-05-04 21:17 | 43.46328 | 12.70370 | 14634 ft | 247 kts | 323° |
| 2026-05-04 21:17 | 43.47765 | 12.69052 | 14896 ft | 247 kts | 322° |
| 2026-05-04 21:17 | 43.49180 | 12.67717 | 15144 ft | 246 kts | 321° |
| 2026-05-04 21:18 | 43.50585 | 12.66386 | 15400 ft | 245 kts | 321° |
| 2026-05-04 21:18 | 43.51981 | 12.65070 | 15687 ft | 244 kts | 322° |
| 2026-05-04 21:18 | 43.53389 | 12.63746 | 15954 ft | 245 kts | 322° |
| 2026-05-04 21:18 | 43.54800 | 12.62416 | 16192 ft | 247 kts | 322° |
| 2026-05-04 21:19 | 43.56230 | 12.61068 | 16399 ft | 250 kts | 323° |
| 2026-05-04 21:19 | 43.57663 | 12.59713 | 16651 ft | 250 kts | 322° |
| 2026-05-04 21:19 | 43.59073 | 12.58378 | 16902 ft | 249 kts | 322° |
| 2026-05-04 21:19 | 43.60525 | 12.57009 | 17165 ft | 249 kts | 322° |
| 2026-05-04 21:20 | 43.61951 | 12.55646 | 17420 ft | 247 kts | 320° |
| 2026-05-04 21:20 | 43.63076 | 12.53944 | 17657 ft | 243 kts | 300° |
| 2026-05-04 21:20 | 43.63904 | 12.51914 | 17918 ft | 242 kts | 297° |
| 2026-05-04 21:20 | 43.64814 | 12.49953 | 18182 ft | 243 kts | 302° |
| 2026-05-04 21:21 | 43.65841 | 12.48036 | 18218 ft | 252 kts | 304° |
| 2026-05-04 21:21 | 43.66897 | 12.46068 | 18223 ft | 258 kts | 303° |
| 2026-05-04 21:21 | 43.67954 | 12.44026 | 18228 ft | 263 kts | 303° |
| 2026-05-04 21:21 | 43.69021 | 12.41961 | 18346 ft | 262 kts | 303° |
| 2026-05-04 21:22 | 43.70069 | 12.39948 | 18588 ft | 257 kts | 303° |
| 2026-05-04 21:22 | 43.71103 | 12.37967 | 18820 ft | 253 kts | 303° |
| 2026-05-04 21:22 | 43.72129 | 12.35987 | 19002 ft | 251 kts | 303° |
| 2026-05-04 21:22 | 43.73157 | 12.34000 | 19011 ft | 257 kts | 303° |
| 2026-05-04 21:23 | 43.74212 | 12.31969 | 19016 ft | 262 kts | 303° |
| 2026-05-04 21:23 | 43.75269 | 12.29933 | 19024 ft | 265 kts | 303° |
| 2026-05-04 21:23 | 43.76321 | 12.27902 | 19026 ft | 267 kts | 303° |
| 2026-05-04 21:23 | 43.77426 | 12.25763 | 19029 ft | 269 kts | 303° |
| 2026-05-04 21:24 | 43.78516 | 12.23659 | 19023 ft | 270 kts | 303° |
| 2026-05-04 21:24 | 43.79617 | 12.21529 | 19021 ft | 272 kts | 303° |
| 2026-05-04 21:24 | 43.80716 | 12.19399 | 19022 ft | 272 kts | 303° |
| 2026-05-04 21:24 | 43.81813 | 12.17271 | 19027 ft | 272 kts | 303° |
| 2026-05-04 21:25 | 43.82916 | 12.15133 | 19025 ft | 272 kts | 303° |
| 2026-05-04 21:25 | 43.84015 | 12.13005 | 19025 ft | 272 kts | 303° |
| 2026-05-04 21:25 | 43.85116 | 12.10863 | 19021 ft | 273 kts | 303° |
| 2026-05-04 21:25 | 43.86197 | 12.08764 | 19020 ft | 273 kts | 303° |
| 2026-05-04 21:26 | 43.87318 | 12.06586 | 19019 ft | 273 kts | 303° |
| 2026-05-04 21:26 | 43.88419 | 12.04439 | 19021 ft | 272 kts | 303° |
| 2026-05-04 21:26 | 43.89518 | 12.02300 | 19017 ft | 272 kts | 303° |
| 2026-05-04 21:26 | 43.90617 | 12.00159 | 19013 ft | 272 kts | 303° |
| 2026-05-04 21:27 | 43.91716 | 11.98014 | 19020 ft | 272 kts | 303° |
| 2026-05-04 21:27 | 43.92789 | 11.95918 | 19015 ft | 269 kts | 303° |
| 2026-05-04 21:27 | 43.93871 | 11.93809 | 19005 ft | 267 kts | 303° |
| 2026-05-04 21:27 | 43.94961 | 11.91675 | 18910 ft | 268 kts | 304° |
| 2026-05-04 21:28 | 43.96036 | 11.89571 | 18908 ft | 266 kts | 304° |
| 2026-05-04 21:28 | 43.97089 | 11.87511 | 18907 ft | 264 kts | 304° |
| 2026-05-04 21:28 | 43.97762 | 11.86193 | 18905 ft | 264 kts | 304° |
| 2026-05-04 21:28 | 43.98048 | 11.85632 | 18903 ft | 263 kts | 304° |
| 2026-05-04 21:29 | 43.99099 | 11.83572 | 18901 ft | 263 kts | 304° |
| 2026-05-04 21:29 | 44.00162 | 11.81487 | 18901 ft | 263 kts | 304° |
| 2026-05-04 21:29 | 44.01217 | 11.79415 | 18900 ft | 262 kts | 304° |
| 2026-05-04 21:29 | 44.02270 | 11.77347 | 18899 ft | 262 kts | 304° |
| 2026-05-04 21:30 | 44.03317 | 11.75288 | 18898 ft | 262 kts | 304° |
| 2026-05-04 21:30 | 44.04370 | 11.73215 | 18898 ft | 262 kts | 304° |
| 2026-05-04 21:30 | 44.05417 | 11.71157 | 18897 ft | 262 kts | 304° |
| 2026-05-04 21:30 | 44.06468 | 11.69083 | 18898 ft | 262 kts | 304° |
| 2026-05-04 21:31 | 44.08566 | 11.64948 | 18898 ft | 261 kts | 304° |
| 2026-05-04 21:31 | 44.09613 | 11.62881 | 18898 ft | 261 kts | 304° |
| 2026-05-04 21:31 | 44.10657 | 11.60817 | 18898 ft | 261 kts | 304° |
| 2026-05-04 21:32 | 44.11701 | 11.58754 | 18897 ft | 261 kts | 304° |
| 2026-05-04 21:32 | 44.12395 | 11.57382 | 18896 ft | 261 kts | 304° |
| 2026-05-04 21:32 | 44.13436 | 11.55318 | 18895 ft | 261 kts | 304° |
| 2026-05-04 21:32 | 44.14480 | 11.53251 | 18898 ft | 260 kts | 304° |
| 2026-05-04 21:33 | 44.15520 | 11.51192 | 18900 ft | 260 kts | 304° |
| 2026-05-04 21:33 | 44.16558 | 11.49133 | 18900 ft | 260 kts | 304° |
| 2026-05-04 21:33 | 44.17599 | 11.47064 | 18901 ft | 260 kts | 304° |
| 2026-05-04 21:33 | 44.18636 | 11.45004 | 18903 ft | 260 kts | 304° |
| 2026-05-04 21:34 | 44.19674 | 11.42942 | 18903 ft | 260 kts | 304° |
| 2026-05-04 21:34 | 44.20715 | 11.40872 | 18901 ft | 260 kts | 303° |
| 2026-05-04 21:34 | 44.21740 | 11.38832 | 18903 ft | 260 kts | 303° |
| 2026-05-04 21:34 | 44.22779 | 11.36762 | 18903 ft | 260 kts | 303° |
| 2026-05-04 21:35 | 44.23817 | 11.34690 | 18902 ft | 260 kts | 303° |
| 2026-05-04 21:35 | 44.24864 | 11.32601 | 18904 ft | 261 kts | 303° |
| 2026-05-04 21:35 | 44.25891 | 11.30553 | 18905 ft | 261 kts | 303° |
| 2026-05-04 21:35 | 44.26918 | 11.28500 | 18903 ft | 261 kts | 303° |
| 2026-05-04 21:36 | 44.27900 | 11.26539 | 18904 ft | 261 kts | 303° |
| 2026-05-04 21:36 | 44.28937 | 11.24463 | 18904 ft | 261 kts | 303° |
| 2026-05-04 21:36 | 44.29972 | 11.22389 | 18905 ft | 261 kts | 303° |
| 2026-05-04 21:36 | 44.31015 | 11.20301 | 18906 ft | 261 kts | 303° |
| 2026-05-04 21:37 | 44.32048 | 11.18231 | 18907 ft | 262 kts | 303° |
| 2026-05-04 21:37 | 44.33091 | 11.16141 | 18907 ft | 261 kts | 303° |
| 2026-05-04 21:37 | 44.34132 | 11.14054 | 18907 ft | 261 kts | 303° |
| 2026-05-04 21:37 | 44.35168 | 11.11973 | 18906 ft | 261 kts | 303° |
| 2026-05-04 21:38 | 44.36204 | 11.09897 | 18907 ft | 261 kts | 303° |
| 2026-05-04 21:38 | 44.37249 | 11.07800 | 18907 ft | 262 kts | 303° |
| 2026-05-04 21:38 | 44.38288 | 11.05716 | 18905 ft | 261 kts | 303° |
| 2026-05-04 21:38 | 44.39324 | 11.03638 | 18906 ft | 261 kts | 303° |
| 2026-05-04 21:39 | 44.40363 | 11.01551 | 18905 ft | 261 kts | 303° |
| 2026-05-04 21:39 | 44.41397 | 10.99476 | 18906 ft | 261 kts | 303° |
| 2026-05-04 21:39 | 44.42437 | 10.97387 | 18906 ft | 261 kts | 303° |
| 2026-05-04 21:39 | 44.43472 | 10.95306 | 18906 ft | 261 kts | 303° |
| 2026-05-04 21:40 | 44.44514 | 10.93209 | 18906 ft | 261 kts | 303° |
| 2026-05-04 21:40 | 44.45548 | 10.91129 | 18908 ft | 261 kts | 303° |
| 2026-05-04 21:40 | 44.46587 | 10.89039 | 18907 ft | 261 kts | 303° |
| 2026-05-04 21:40 | 44.47626 | 10.86946 | 18908 ft | 261 kts | 303° |
| 2026-05-04 21:41 | 44.48663 | 10.84860 | 18907 ft | 261 kts | 303° |
| 2026-05-04 21:41 | 44.49688 | 10.82794 | 18907 ft | 261 kts | 303° |
| 2026-05-04 21:41 | 44.50726 | 10.80703 | 18908 ft | 261 kts | 303° |
| 2026-05-04 21:41 | 44.51762 | 10.78614 | 18908 ft | 261 kts | 303° |
| 2026-05-04 21:42 | 44.52800 | 10.76520 | 18908 ft | 262 kts | 303° |
| 2026-05-04 21:42 | 44.53835 | 10.74431 | 18909 ft | 262 kts | 303° |
| 2026-05-04 21:42 | 44.54877 | 10.72326 | 18906 ft | 262 kts | 303° |
| 2026-05-04 21:42 | 44.55909 | 10.70242 | 18904 ft | 261 kts | 303° |
| 2026-05-04 21:43 | 44.56948 | 10.68144 | 18904 ft | 261 kts | 303° |
| 2026-05-04 21:43 | 44.57984 | 10.66050 | 18905 ft | 261 kts | 303° |
| 2026-05-04 21:43 | 44.59024 | 10.63949 | 18904 ft | 261 kts | 303° |
| 2026-05-04 21:43 | 44.60060 | 10.61854 | 18905 ft | 261 kts | 303° |
| 2026-05-04 21:44 | 44.61085 | 10.59781 | 18905 ft | 261 kts | 303° |
| 2026-05-04 21:44 | 44.62135 | 10.57657 | 18906 ft | 262 kts | 303° |
| 2026-05-04 21:44 | 44.63155 | 10.55594 | 18905 ft | 261 kts | 303° |
| 2026-05-04 21:44 | 44.64197 | 10.53487 | 18905 ft | 261 kts | 303° |
| 2026-05-04 21:45 | 44.65234 | 10.51388 | 18906 ft | 261 kts | 303° |
| 2026-05-04 21:45 | 44.66271 | 10.49288 | 18906 ft | 261 kts | 303° |
| 2026-05-04 21:45 | 44.67308 | 10.47187 | 18906 ft | 261 kts | 303° |
| 2026-05-04 21:45 | 44.68345 | 10.45086 | 18905 ft | 261 kts | 303° |
| 2026-05-04 21:46 | 44.69379 | 10.42991 | 18905 ft | 261 kts | 303° |
| 2026-05-04 21:46 | 44.70417 | 10.40886 | 18905 ft | 261 kts | 303° |
| 2026-05-04 21:46 | 44.71449 | 10.38794 | 18907 ft | 261 kts | 303° |
| 2026-05-04 21:46 | 44.72483 | 10.36695 | 18908 ft | 261 kts | 303° |
| 2026-05-04 21:47 | 44.73517 | 10.34599 | 18908 ft | 261 kts | 303° |
| 2026-05-04 21:47 | 44.74544 | 10.32514 | 18909 ft | 261 kts | 303° |
| 2026-05-04 21:47 | 44.75584 | 10.30403 | 18910 ft | 261 kts | 303° |
| 2026-05-04 21:47 | 44.76614 | 10.28311 | 18910 ft | 261 kts | 303° |
| 2026-05-04 21:48 | 44.77649 | 10.26208 | 18910 ft | 261 kts | 303° |
| 2026-05-04 21:48 | 44.78669 | 10.24135 | 18909 ft | 261 kts | 303° |
| 2026-05-04 21:48 | 44.79721 | 10.21995 | 18701 ft | 267 kts | 303° |
| 2026-05-04 21:48 | 44.80782 | 10.19836 | 18364 ft | 269 kts | 303° |
| 2026-05-04 21:49 | 44.81838 | 10.17687 | 18011 ft | 271 kts | 303° |
| 2026-05-04 21:49 | 44.82913 | 10.15497 | 17677 ft | 272 kts | 303° |
| 2026-05-04 21:49 | 44.83980 | 10.13325 | 17330 ft | 267 kts | 303° |
| 2026-05-04 21:49 | 44.85027 | 10.11197 | 16968 ft | 261 kts | 303° |
| 2026-05-04 21:50 | 44.86057 | 10.09101 | 16622 ft | 258 kts | 303° |
| 2026-05-04 21:50 | 44.87075 | 10.07032 | 16269 ft | 256 kts | 303° |
| 2026-05-04 21:50 | 44.88090 | 10.04970 | 15910 ft | 255 kts | 303° |
| 2026-05-04 21:50 | 44.89102 | 10.02913 | 15568 ft | 255 kts | 303° |
| 2026-05-04 21:51 | 44.90108 | 10.00868 | 15219 ft | 254 kts | 303° |
| 2026-05-04 21:51 | 44.91112 | 9.98826 | 14861 ft | 254 kts | 303° |
| 2026-05-04 21:51 | 44.92122 | 9.96773 | 14522 ft | 253 kts | 303° |
| 2026-05-04 21:51 | 44.93128 | 9.94728 | 14173 ft | 253 kts | 303° |
| 2026-05-04 21:52 | 44.94133 | 9.92684 | 13824 ft | 253 kts | 303° |
| 2026-05-04 21:52 | 44.95126 | 9.90662 | 13482 ft | 251 kts | 303° |
| 2026-05-04 21:52 | 44.96117 | 9.88647 | 13133 ft | 249 kts | 303° |
| 2026-05-04 21:52 | 44.97107 | 9.86637 | 12776 ft | 247 kts | 303° |
| 2026-05-04 21:53 | 44.98072 | 9.84674 | 12435 ft | 246 kts | 303° |
| 2026-05-04 21:53 | 44.99050 | 9.82687 | 12083 ft | 247 kts | 303° |
| 2026-05-04 21:53 | 45.00029 | 9.80696 | 11732 ft | 247 kts | 303° |
| 2026-05-04 21:53 | 45.01007 | 9.78706 | 11386 ft | 245 kts | 303° |
| 2026-05-04 21:54 | 45.01981 | 9.76727 | 11037 ft | 244 kts | 303° |
| 2026-05-04 21:54 | 45.02947 | 9.74766 | 10688 ft | 242 kts | 303° |
| 2026-05-04 21:54 | 45.03908 | 9.72815 | 10338 ft | 241 kts | 303° |
| 2026-05-04 21:54 | 45.04875 | 9.70852 | 9989 ft | 246 kts | 303° |
| 2026-05-04 21:55 | 45.05856 | 9.68854 | 9644 ft | 249 kts | 303° |
| 2026-05-04 21:55 | 45.06852 | 9.66829 | 9297 ft | 250 kts | 303° |
| 2026-05-04 21:55 | 45.07847 | 9.64803 | 8950 ft | 251 kts | 303° |
| 2026-05-04 21:55 | 45.08833 | 9.62796 | 8605 ft | 250 kts | 303° |
| 2026-05-04 21:56 | 45.09823 | 9.60778 | 8257 ft | 249 kts | 303° |
| 2026-05-04 21:56 | 45.10790 | 9.58812 | 7912 ft | 237 kts | 303° |
| 2026-05-04 21:56 | 45.11722 | 9.56920 | 7547 ft | 232 kts | 303° |
| 2026-05-04 21:56 | 45.12635 | 9.55067 | 7192 ft | 228 kts | 303° |
| 2026-05-04 21:57 | 45.13542 | 9.53231 | 6841 ft | 227 kts | 303° |
| 2026-05-04 21:57 | 45.14446 | 9.51400 | 6491 ft | 226 kts | 303° |
| 2026-05-04 21:57 | 45.15338 | 9.49587 | 6141 ft | 226 kts | 303° |
| 2026-05-04 21:57 | 45.16237 | 9.47761 | 5791 ft | 226 kts | 303° |
| 2026-05-04 21:58 | 45.17135 | 9.45940 | 5441 ft | 225 kts | 303° |
| 2026-05-04 21:58 | 45.18028 | 9.44129 | 5085 ft | 224 kts | 303° |
| 2026-05-04 21:58 | 45.18916 | 9.42328 | 4713 ft | 223 kts | 303° |
| 2026-05-04 21:58 | 45.19792 | 9.40549 | 4334 ft | 214 kts | 303° |
| 2026-05-04 21:59 | 45.20635 | 9.38852 | 3954 ft | 207 kts | 303° |
| 2026-05-04 21:59 | 45.21452 | 9.37218 | 3576 ft | 205 kts | 303° |
| 2026-05-04 21:59 | 45.22260 | 9.35599 | 3199 ft | 196 kts | 304° |
| 2026-05-04 21:59 | 45.23033 | 9.34048 | 2818 ft | 190 kts | 304° |
| 2026-05-04 22:00 | 45.23789 | 9.32525 | 2434 ft | 188 kts | 303° |
| 2026-05-04 22:00 | 45.24511 | 9.31075 | 2395 ft | 172 kts | 303° |
| 2026-05-04 22:00 | 45.25178 | 9.29743 | 2399 ft | 162 kts | 303° |
| 2026-05-04 22:00 | 45.25824 | 9.28457 | 2397 ft | 156 kts | 303° |
| 2026-05-04 22:01 | 45.26448 | 9.27214 | 2395 ft | 154 kts | 303° |
| 2026-05-04 22:01 | 45.27064 | 9.25986 | 2398 ft | 153 kts | 303° |
| 2026-05-04 22:01 | 45.27674 | 9.24765 | 2396 ft | 151 kts | 302° |
| 2026-05-04 22:01 | 45.28274 | 9.23565 | 2398 ft | 150 kts | 302° |
| 2026-05-04 22:02 | 45.28878 | 9.22353 | 2396 ft | 149 kts | 302° |
| 2026-05-04 22:02 | 45.29454 | 9.21197 | 2399 ft | 147 kts | 303° |
| 2026-05-04 22:02 | 45.30184 | 9.20328 | 2393 ft | 149 kts | 334° |
| 2026-05-04 22:02 | 45.31161 | 9.20298 | 2381 ft | 138 kts | 15° |
| 2026-05-04 22:03 | 45.31894 | 9.21244 | 2398 ft | 154 kts | 60° |
| 2026-05-04 22:03 | 45.32076 | 9.22779 | 2407 ft | 163 kts | 94° |
| 2026-05-04 22:03 | 45.31925 | 9.24414 | 2415 ft | 170 kts | 103° |
| 2026-05-04 22:03 | 45.31556 | 9.26018 | 2415 ft | 172 kts | 115° |
| 2026-05-04 22:04 | 45.30981 | 9.27505 | 2418 ft | 172 kts | 125° |
| 2026-05-04 22:04 | 45.30221 | 9.28812 | 2414 ft | 171 kts | 137° |
| 2026-05-04 22:04 | 45.29307 | 9.29883 | 2414 ft | 170 kts | 148° |
| 2026-05-04 22:04 | 45.28271 | 9.30686 | 2413 ft | 169 kts | 159° |
| 2026-05-04 22:05 | 45.27199 | 9.31181 | 2413 ft | 167 kts | 170° |
| 2026-05-04 22:05 | 45.26023 | 9.31390 | 2410 ft | 165 kts | 182° |
| 2026-05-04 22:05 | 45.24883 | 9.31274 | 2412 ft | 165 kts | 192° |
| 2026-05-04 22:05 | 45.23779 | 9.30851 | 2408 ft | 163 kts | 204° |
| 2026-05-04 22:06 | 45.22773 | 9.30141 | 2408 ft | 161 kts | 215° |
| 2026-05-04 22:06 | 45.21911 | 9.29191 | 2406 ft | 157 kts | 226° |
| 2026-05-04 22:06 | 45.21199 | 9.28005 | 2406 ft | 157 kts | 237° |
| 2026-05-04 22:06 | 45.20685 | 9.26664 | 2407 ft | 158 kts | 247° |
| 2026-05-04 22:07 | 45.20363 | 9.25186 | 2402 ft | 157 kts | 259° |
| 2026-05-04 22:07 | 45.20265 | 9.23641 | 2400 ft | 158 kts | 272° |
| 2026-05-04 22:07 | 45.20652 | 9.22208 | 2396 ft | 159 kts | 307° |
| 2026-05-04 22:07 | 45.21592 | 9.21396 | 2393 ft | 163 kts | 343° |
| 2026-05-04 22:08 | 45.22727 | 9.21541 | 2400 ft | 170 kts | 19° |
| 2026-05-04 22:08 | 45.23630 | 9.22629 | 2394 ft | 175 kts | 56° |
| 2026-05-04 22:08 | 45.24006 | 9.24248 | 2402 ft | 174 kts | 77° |
| 2026-05-04 22:08 | 45.24554 | 9.25755 | 2398 ft | 172 kts | 43° |
| 2026-05-04 22:09 | 45.25580 | 9.26523 | 2397 ft | 166 kts | 7° |
| 2026-05-04 22:09 | 45.26716 | 9.26737 | 2400 ft | 166 kts | 8° |
| 2026-05-04 22:09 | 45.27783 | 9.27399 | 2400 ft | 170 kts | 29° |
| 2026-05-04 22:09 | 45.28767 | 9.28356 | 2409 ft | 172 kts | 32° |
| 2026-05-04 22:10 | 45.29780 | 9.29185 | 2397 ft | 168 kts | 15° |
| 2026-05-04 22:10 | 45.30943 | 9.29251 | 2401 ft | 164 kts | 349° |
| 2026-05-04 22:10 | 45.32074 | 9.29026 | 2405 ft | 164 kts | 348° |
| 2026-05-04 22:10 | 45.33188 | 9.28798 | 2407 ft | 165 kts | 349° |
| 2026-05-04 22:11 | 45.34347 | 9.28558 | 2257 ft | 173 kts | 349° |
| 2026-05-04 22:11 | 45.35531 | 9.28311 | 2068 ft | 164 kts | 348° |
| 2026-05-04 22:11 | 45.36540 | 9.28225 | 2010 ft | 135 kts | 6° |
| 2026-05-04 22:11 | 45.37487 | 9.28623 | 1772 ft | 140 kts | 8° |
| 2026-05-04 22:12 | 45.38384 | 9.28714 | 1603 ft | 118 kts | 354° |
| 2026-05-04 22:12 | 45.39147 | 9.28670 | 1468 ft | 104 kts | 349° |
| 2026-05-04 22:12 | 45.39883 | 9.28512 | 1224 ft | 109 kts | 348° |
| 2026-05-04 22:12 | 45.40566 | 9.28263 | 913 ft | 96 kts | 340° |
| 2026-05-04 22:13 | 45.41218 | 9.28096 | 545 ft | 89 kts | 353° |
| 2026-05-04 22:13 | 45.41830 | 9.28055 | 511 ft | 92 kts | 356° |
| 2026-05-04 22:13 | 45.42454 | 9.27937 | 509 ft | 90 kts | 348° |
| 2026-05-04 22:13 | 45.43091 | 9.27866 | 419 ft | 93 kts | 352° |
| 2026-05-04 22:14 | 45.43705 | 9.27795 | 359 ft | 86 kts | 351° |
| 2026-05-04 22:14 | 45.44120 | 9.27752 | 349 ft | 73 kts | 351° |
| 2026-05-04 22:14 | 45.44574 | 9.27701 | 357 ft | 58 kts | 356° |
| 2026-05-04 22:14 | 45.44950 | 9.27663 | 355 ft | 51 kts | 1° |
| 2026-05-04 22:15 | 45.45231 | 9.27630 | 354 ft | 38 kts | 7° |
| 2026-05-04 22:15 | 45.45450 | 9.27793 | 363 ft | 30 kts | 36° |
| 2026-05-04 22:15 | 45.45534 | 9.27815 | 359 ft | 12 kts | 355° |
| 2026-05-04 22:15 | 45.45640 | 9.27813 | 361 ft | 18 kts | 3° |
| 2026-05-04 22:16 | 45.45712 | 9.27816 | 358 ft | 21 kts | 359° |